Alden, New York
Current Conditions -  °F | °C
As of 9:59 AM on Tuesday 21 Oct 2014 (Local Time) from KBUF Reporting Station
Haze Haze  
Wind Chill: 52°   Ceiling: 800
Heat Index: 52°   Visibility: 5mi
Dew Point: 48°   Wind: 7mph
Humidity: 86%   Direction: 300°WNW
Pressure: 29.84"   Gusts: NA
Location:  42.9°N, 78.49°W
Report Text: KBUF 211359Z 30006KT 5SM BR BKN008 BKN021 OVC042 11/09 A2984 RMK AO2 CIG 007V010 T01110089
Loading
Personal Weather Stations






























Interactive Weather Map New forecast layout! Learn more

10-Day Weather Forecast

Advertisements
Track Severe Weather on mobile